sensor_id;sensor_type;location;lat;lon;timestamp;P1;durP1;ratioP1;P2;durP2;ratioP2
75941;SDS011;64622;46.220;19.878;2023-01-29T00:00:20;52.65;;;21.90;;
75941;SDS011;64622;46.220;19.878;2023-01-29T00:02:47;56.08;;;23.65;;
75941;SDS011;64622;46.220;19.878;2023-01-29T00:05:14;56.50;;;23.25;;
75941;SDS011;64622;46.220;19.878;2023-01-29T00:07:40;57.45;;;25.80;;
75941;SDS011;64622;46.220;19.878;2023-01-29T00:10:08;57.33;;;23.15;;
75941;SDS011;64622;46.220;19.878;2023-01-29T00:12:37;53.90;;;21.83;;
75941;SDS011;64622;46.220;19.878;2023-01-29T00:15:04;58.28;;;24.02;;
75941;SDS011;64622;46.220;19.878;2023-01-29T00:17:31;55.63;;;23.50;;
75941;SDS011;64622;46.220;19.878;2023-01-29T00:19:58;60.78;;;26.15;;
75941;SDS011;64622;46.220;19.878;2023-01-29T00:22:25;54.45;;;21.80;;
75941;SDS011;64622;46.220;19.878;2023-01-29T00:24:52;53.47;;;22.48;;
75941;SDS011;64622;46.220;19.878;2023-01-29T00:27:19;51.53;;;21.10;;
75941;SDS011;64622;46.220;19.878;2023-01-29T00:29:46;57.03;;;23.85;;
75941;SDS011;64622;46.220;19.878;2023-01-29T00:32:34;57.28;;;23.00;;
75941;SDS011;64622;46.220;19.878;2023-01-29T00:35:01;57.28;;;23.73;;
75941;SDS011;64622;46.220;19.878;2023-01-29T00:37:28;54.25;;;21.55;;
75941;SDS011;64622;46.220;19.878;2023-01-29T00:39:55;55.78;;;23.62;;
75941;SDS011;64622;46.220;19.878;2023-01-29T00:42:22;51.15;;;22.13;;
75941;SDS011;64622;46.220;19.878;2023-01-29T00:45:10;50.80;;;20.83;;
75941;SDS011;64622;46.220;19.878;2023-01-29T00:47:37;50.53;;;21.75;;
75941;SDS011;64622;46.220;19.878;2023-01-29T00:50:05;53.05;;;22.62;;
75941;SDS011;64622;46.220;19.878;2023-01-29T00:52:34;54.55;;;22.67;;
75941;SDS011;64622;46.220;19.878;2023-01-29T00:55:06;57.80;;;22.98;;
75941;SDS011;64622;46.220;19.878;2023-01-29T00:57:35;54.38;;;23.02;;
75941;SDS011;64622;46.220;19.878;2023-01-29T01:00:04;50.92;;;21.90;;
75941;SDS011;64622;46.220;19.878;2023-01-29T01:02:33;52.22;;;22.58;;
75941;SDS011;64622;46.220;19.878;2023-01-29T01:05:18;50.83;;;21.65;;
75941;SDS011;64622;46.220;19.878;2023-01-29T01:07:48;54.00;;;21.25;;
75941;SDS011;64622;46.220;19.878;2023-01-29T01:10:18;48.05;;;20.23;;
75941;SDS011;64622;46.220;19.878;2023-01-29T01:12:49;46.42;;;20.17;;
75941;SDS011;64622;46.220;19.878;2023-01-29T01:15:35;45.10;;;19.12;;
75941;SDS011;64622;46.220;19.878;2023-01-29T01:18:04;50.88;;;22.10;;
75941;SDS011;64622;46.220;19.878;2023-01-29T01:20:33;50.08;;;20.83;;
75941;SDS011;64622;46.220;19.878;2023-01-29T01:23:01;54.80;;;23.62;;
75941;SDS011;64622;46.220;19.878;2023-01-29T01:25:28;52.45;;;23.08;;
75941;SDS011;64622;46.220;19.878;2023-01-29T01:27:56;53.75;;;21.75;;
75941;SDS011;64622;46.220;19.878;2023-01-29T01:30:24;53.30;;;22.65;;
75941;SDS011;64622;46.220;19.878;2023-01-29T01:32:51;52.72;;;20.67;;
75941;SDS011;64622;46.220;19.878;2023-01-29T01:35:18;51.55;;;22.00;;
75941;SDS011;64622;46.220;19.878;2023-01-29T01:37:45;54.13;;;21.65;;
75941;SDS011;64622;46.220;19.878;2023-01-29T01:40:14;54.13;;;23.55;;
75941;SDS011;64622;46.220;19.878;2023-01-29T01:42:43;47.88;;;21.02;;
75941;SDS011;64622;46.220;19.878;2023-01-29T01:45:18;53.17;;;22.42;;
75941;SDS011;64622;46.220;19.878;2023-01-29T01:47:50;52.28;;;20.83;;
75941;SDS011;64622;46.220;19.878;2023-01-29T01:50:25;50.05;;;20.60;;
75941;SDS011;64622;46.220;19.878;2023-01-29T01:53:08;54.40;;;22.25;;
75941;SDS011;64622;46.220;19.878;2023-01-29T01:55:47;51.20;;;21.58;;
75941;SDS011;64622;46.220;19.878;2023-01-29T01:58:21;52.33;;;22.45;;
75941;SDS011;64622;46.220;19.878;2023-01-29T02:00:53;46.47;;;20.80;;
75941;SDS011;64622;46.220;19.878;2023-01-29T02:03:20;48.53;;;20.80;;
75941;SDS011;64622;46.220;19.878;2023-01-29T02:06:08;47.08;;;19.75;;
75941;SDS011;64622;46.220;19.878;2023-01-29T02:09:05;43.28;;;19.00;;
75941;SDS011;64622;46.220;19.878;2023-01-29T02:11:55;43.87;;;18.77;;
75941;SDS011;64622;46.220;19.878;2023-01-29T02:14:22;44.13;;;18.25;;
75941;SDS011;64622;46.220;19.878;2023-01-29T02:16:52;43.90;;;18.02;;
75941;SDS011;64622;46.220;19.878;2023-01-29T02:22:19;42.08;;;18.27;;
75941;SDS011;64622;46.220;19.878;2023-01-29T02:30:46;39.92;;;16.65;;
75941;SDS011;64622;46.220;19.878;2023-01-29T02:49:50;32.55;;;12.25;;
75941;SDS011;64622;46.220;19.878;2023-01-29T02:52:25;31.75;;;12.63;;
75941;SDS011;64622;46.220;19.878;2023-01-29T02:57:36;35.70;;;13.70;;
75941;SDS011;64622;46.220;19.878;2023-01-29T03:00:09;28.17;;;11.57;;
75941;SDS011;64622;46.220;19.878;2023-01-29T03:02:54;28.23;;;12.98;;
75941;SDS011;64622;46.220;19.878;2023-01-29T03:05:30;23.58;;;10.60;;
75941;SDS011;64622;46.220;19.878;2023-01-29T03:08:10;24.37;;;10.73;;
75941;SDS011;64622;46.220;19.878;2023-01-29T03:10:43;29.63;;;12.18;;
75941;SDS011;64622;46.220;19.878;2023-01-29T03:15:50;29.12;;;12.00;;
75941;SDS011;64622;46.220;19.878;2023-01-29T03:18:31;24.87;;;10.88;;
75941;SDS011;64622;46.220;19.878;2023-01-29T03:21:08;30.35;;;11.85;;
75941;SDS011;64622;46.220;19.878;2023-01-29T03:24:01;31.23;;;12.02;;
75941;SDS011;64622;46.220;19.878;2023-01-29T03:26:49;26.48;;;11.73;;
75941;SDS011;64622;46.220;19.878;2023-01-29T03:29:37;24.20;;;10.55;;
75941;SDS011;64622;46.220;19.878;2023-01-29T03:32:27;25.80;;;9.90;;
75941;SDS011;64622;46.220;19.878;2023-01-29T03:34:57;25.37;;;10.48;;
75941;SDS011;64622;46.220;19.878;2023-01-29T03:40:05;24.50;;;10.95;;
75941;SDS011;64622;46.220;19.878;2023-01-29T03:45:35;30.10;;;11.77;;
75941;SDS011;64622;46.220;19.878;2023-01-29T03:48:17;27.67;;;12.27;;
75941;SDS011;64622;46.220;19.878;2023-01-29T03:50:53;27.00;;;11.00;;
75941;SDS011;64622;46.220;19.878;2023-01-29T03:59:30;26.55;;;10.50;;
75941;SDS011;64622;46.220;19.878;2023-01-29T04:02:01;28.70;;;11.75;;
75941;SDS011;64622;46.220;19.878;2023-01-29T04:04:33;29.00;;;11.57;;
75941;SDS011;64622;46.220;19.878;2023-01-29T04:07:07;25.48;;;11.63;;
75941;SDS011;64622;46.220;19.878;2023-01-29T04:09:41;27.55;;;11.73;;
75941;SDS011;64622;46.220;19.878;2023-01-29T04:12:12;29.90;;;11.98;;
75941;SDS011;64622;46.220;19.878;2023-01-29T04:14:44;28.27;;;11.23;;
75941;SDS011;64622;46.220;19.878;2023-01-29T04:17:38;30.98;;;12.02;;
75941;SDS011;64622;46.220;19.878;2023-01-29T04:20:07;28.30;;;11.70;;
75941;SDS011;64622;46.220;19.878;2023-01-29T04:22:36;28.12;;;11.20;;
75941;SDS011;64622;46.220;19.878;2023-01-29T04:25:09;29.02;;;11.27;;
75941;SDS011;64622;46.220;19.878;2023-01-29T04:27:47;25.92;;;11.27;;
75941;SDS011;64622;46.220;19.878;2023-01-29T04:36:01;25.88;;;10.82;;
75941;SDS011;64622;46.220;19.878;2023-01-29T04:39:07;24.77;;;9.90;;
75941;SDS011;64622;46.220;19.878;2023-01-29T04:44:22;29.12;;;10.48;;
75941;SDS011;64622;46.220;19.878;2023-01-29T04:49:59;28.55;;;12.00;;
75941;SDS011;64622;46.220;19.878;2023-01-29T04:55:27;28.73;;;12.00;;
75941;SDS011;64622;46.220;19.878;2023-01-29T05:00:25;30.98;;;12.55;;
75941;SDS011;64622;46.220;19.878;2023-01-29T05:02:55;28.05;;;12.20;;
75941;SDS011;64622;46.220;19.878;2023-01-29T05:05:23;29.48;;;10.65;;
75941;SDS011;64622;46.220;19.878;2023-01-29T05:07:49;31.15;;;11.32;;
75941;SDS011;64622;46.220;19.878;2023-01-29T05:10:17;29.98;;;10.38;;
75941;SDS011;64622;46.220;19.878;2023-01-29T05:12:48;28.08;;;10.65;;
75941;SDS011;64622;46.220;19.878;2023-01-29T05:15:22;34.35;;;14.60;;
75941;SDS011;64622;46.220;19.878;2023-01-29T05:17:55;28.62;;;12.15;;
75941;SDS011;64622;46.220;19.878;2023-01-29T05:20:29;25.42;;;9.90;;
75941;SDS011;64622;46.220;19.878;2023-01-29T05:22:58;26.10;;;10.90;;
75941;SDS011;64622;46.220;19.878;2023-01-29T05:25:26;23.10;;;10.38;;
75941;SDS011;64622;46.220;19.878;2023-01-29T05:27:55;25.75;;;10.10;;
75941;SDS011;64622;46.220;19.878;2023-01-29T05:30:33;27.77;;;10.77;;
75941;SDS011;64622;46.220;19.878;2023-01-29T05:33:02;35.42;;;12.10;;
75941;SDS011;64622;46.220;19.878;2023-01-29T05:35:29;29.77;;;11.57;;
75941;SDS011;64622;46.220;19.878;2023-01-29T05:37:56;26.73;;;9.75;;
75941;SDS011;64622;46.220;19.878;2023-01-29T05:40:37;26.95;;;9.98;;
75941;SDS011;64622;46.220;19.878;2023-01-29T05:43:04;26.33;;;10.15;;
75941;SDS011;64622;46.220;19.878;2023-01-29T05:45:37;23.48;;;9.70;;
75941;SDS011;64622;46.220;19.878;2023-01-29T05:48:03;24.17;;;9.30;;
75941;SDS011;64622;46.220;19.878;2023-01-29T05:50:30;26.17;;;9.40;;
75941;SDS011;64622;46.220;19.878;2023-01-29T05:53:00;25.05;;;9.70;;
75941;SDS011;64622;46.220;19.878;2023-01-29T05:55:30;26.62;;;10.05;;
75941;SDS011;64622;46.220;19.878;2023-01-29T05:57:56;26.45;;;10.68;;
75941;SDS011;64622;46.220;19.878;2023-01-29T06:00:24;29.92;;;11.20;;
75941;SDS011;64622;46.220;19.878;2023-01-29T06:02:51;30.23;;;11.00;;
75941;SDS011;64622;46.220;19.878;2023-01-29T06:05:18;26.45;;;10.02;;
75941;SDS011;64622;46.220;19.878;2023-01-29T06:07:44;32.08;;;12.73;;
75941;SDS011;64622;46.220;19.878;2023-01-29T06:10:13;41.83;;;17.58;;
75941;SDS011;64622;46.220;19.878;2023-01-29T06:12:42;37.40;;;13.57;;
75941;SDS011;64622;46.220;19.878;2023-01-29T06:15:09;30.58;;;10.90;;
75941;SDS011;64622;46.220;19.878;2023-01-29T06:17:37;24.70;;;10.00;;
75941;SDS011;64622;46.220;19.878;2023-01-29T06:20:04;27.58;;;10.02;;
75941;SDS011;64622;46.220;19.878;2023-01-29T06:22:32;27.75;;;10.30;;
75941;SDS011;64622;46.220;19.878;2023-01-29T06:24:59;28.08;;;11.00;;
75941;SDS011;64622;46.220;19.878;2023-01-29T06:27:25;34.45;;;13.82;;
75941;SDS011;64622;46.220;19.878;2023-01-29T06:29:53;37.15;;;13.82;;
75941;SDS011;64622;46.220;19.878;2023-01-29T06:32:20;53.15;;;20.15;;
75941;SDS011;64622;46.220;19.878;2023-01-29T06:34:46;81.25;;;29.37;;
75941;SDS011;64622;46.220;19.878;2023-01-29T06:37:13;41.08;;;17.58;;
75941;SDS011;64622;46.220;19.878;2023-01-29T06:39:40;54.42;;;18.17;;
75941;SDS011;64622;46.220;19.878;2023-01-29T06:42:07;56.58;;;21.25;;
75941;SDS011;64622;46.220;19.878;2023-01-29T06:44:33;30.27;;;13.07;;
75941;SDS011;64622;46.220;19.878;2023-01-29T06:47:00;26.77;;;11.35;;
75941;SDS011;64622;46.220;19.878;2023-01-29T06:49:26;21.83;;;9.27;;
75941;SDS011;64622;46.220;19.878;2023-01-29T06:51:53;24.55;;;9.63;;
75941;SDS011;64622;46.220;19.878;2023-01-29T06:54:20;22.92;;;9.55;;
75941;SDS011;64622;46.220;19.878;2023-01-29T06:56:46;23.67;;;8.60;;
75941;SDS011;64622;46.220;19.878;2023-01-29T06:59:13;30.85;;;11.12;;
75941;SDS011;64622;46.220;19.878;2023-01-29T07:01:40;68.68;;;29.00;;
75941;SDS011;64622;46.220;19.878;2023-01-29T07:04:10;79.53;;;39.25;;
75941;SDS011;64622;46.220;19.878;2023-01-29T07:06:37;66.37;;;36.10;;
75941;SDS011;64622;46.220;19.878;2023-01-29T07:09:03;37.92;;;19.60;;
75941;SDS011;64622;46.220;19.878;2023-01-29T07:11:31;24.63;;;12.32;;
75941;SDS011;64622;46.220;19.878;2023-01-29T07:14:00;26.62;;;12.18;;
75941;SDS011;64622;46.220;19.878;2023-01-29T07:16:27;28.70;;;13.38;;
75941;SDS011;64622;46.220;19.878;2023-01-29T07:18:53;25.50;;;10.70;;
75941;SDS011;64622;46.220;19.878;2023-01-29T07:21:20;29.40;;;13.30;;
75941;SDS011;64622;46.220;19.878;2023-01-29T07:23:46;27.15;;;11.70;;
75941;SDS011;64622;46.220;19.878;2023-01-29T07:26:13;28.12;;;12.30;;
75941;SDS011;64622;46.220;19.878;2023-01-29T07:28:40;23.67;;;11.00;;
75941;SDS011;64622;46.220;19.878;2023-01-29T07:31:07;30.45;;;14.05;;
75941;SDS011;64622;46.220;19.878;2023-01-29T07:33:38;27.27;;;11.73;;
75941;SDS011;64622;46.220;19.878;2023-01-29T07:36:08;26.42;;;11.60;;
75941;SDS011;64622;46.220;19.878;2023-01-29T07:38:36;23.73;;;8.88;;
75941;SDS011;64622;46.220;19.878;2023-01-29T07:41:03;20.20;;;8.07;;
75941;SDS011;64622;46.220;19.878;2023-01-29T07:43:29;21.95;;;8.52;;
75941;SDS011;64622;46.220;19.878;2023-01-29T07:46:00;22.62;;;8.98;;
75941;SDS011;64622;46.220;19.878;2023-01-29T07:48:27;21.52;;;8.15;;
75941;SDS011;64622;46.220;19.878;2023-01-29T07:50:54;19.27;;;8.07;;
75941;SDS011;64622;46.220;19.878;2023-01-29T07:53:21;23.12;;;8.80;;
75941;SDS011;64622;46.220;19.878;2023-01-29T07:55:48;20.33;;;7.65;;
75941;SDS011;64622;46.220;19.878;2023-01-29T07:58:15;22.60;;;8.63;;
75941;SDS011;64622;46.220;19.878;2023-01-29T08:00:41;21.83;;;8.90;;
75941;SDS011;64622;46.220;19.878;2023-01-29T08:03:10;20.50;;;8.60;;
75941;SDS011;64622;46.220;19.878;2023-01-29T08:05:38;24.20;;;8.25;;
75941;SDS011;64622;46.220;19.878;2023-01-29T08:08:05;20.23;;;7.85;;
75941;SDS011;64622;46.220;19.878;2023-01-29T08:10:32;20.17;;;7.72;;
75941;SDS011;64622;46.220;19.878;2023-01-29T08:13:06;19.77;;;9.40;;
75941;SDS011;64622;46.220;19.878;2023-01-29T08:15:33;21.08;;;7.72;;
75941;SDS011;64622;46.220;19.878;2023-01-29T08:18:01;24.80;;;12.68;;
75941;SDS011;64622;46.220;19.878;2023-01-29T08:20:28;23.15;;;10.10;;
75941;SDS011;64622;46.220;19.878;2023-01-29T08:23:02;20.70;;;9.57;;
75941;SDS011;64622;46.220;19.878;2023-01-29T08:25:39;23.12;;;10.63;;
75941;SDS011;64622;46.220;19.878;2023-01-29T08:28:06;21.27;;;9.35;;
75941;SDS011;64622;46.220;19.878;2023-01-29T08:30:32;21.50;;;9.10;;
75941;SDS011;64622;46.220;19.878;2023-01-29T08:33:00;22.25;;;9.25;;
75941;SDS011;64622;46.220;19.878;2023-01-29T08:35:29;21.83;;;8.32;;
75941;SDS011;64622;46.220;19.878;2023-01-29T08:37:56;21.12;;;8.60;;
75941;SDS011;64622;46.220;19.878;2023-01-29T08:40:25;20.05;;;7.95;;
75941;SDS011;64622;46.220;19.878;2023-01-29T08:43:00;18.70;;;7.53;;
75941;SDS011;64622;46.220;19.878;2023-01-29T08:45:28;20.80;;;8.10;;
75941;SDS011;64622;46.220;19.878;2023-01-29T08:47:55;22.87;;;10.23;;
75941;SDS011;64622;46.220;19.878;2023-01-29T08:50:23;20.50;;;9.13;;
75941;SDS011;64622;46.220;19.878;2023-01-29T08:52:49;21.65;;;7.82;;
75941;SDS011;64622;46.220;19.878;2023-01-29T08:55:17;18.17;;;7.50;;
75941;SDS011;64622;46.220;19.878;2023-01-29T08:57:43;21.80;;;9.00;;
75941;SDS011;64622;46.220;19.878;2023-01-29T09:00:11;19.58;;;8.52;;
75941;SDS011;64622;46.220;19.878;2023-01-29T09:02:38;23.70;;;8.57;;
75941;SDS011;64622;46.220;19.878;2023-01-29T09:05:08;19.60;;;7.30;;
75941;SDS011;64622;46.220;19.878;2023-01-29T09:07:35;21.90;;;9.60;;
75941;SDS011;64622;46.220;19.878;2023-01-29T09:10:02;19.83;;;8.57;;
75941;SDS011;64622;46.220;19.878;2023-01-29T09:12:29;20.90;;;7.57;;
75941;SDS011;64622;46.220;19.878;2023-01-29T09:14:56;20.88;;;8.50;;
75941;SDS011;64622;46.220;19.878;2023-01-29T09:17:23;28.52;;;18.02;;
75941;SDS011;64622;46.220;19.878;2023-01-29T09:19:49;24.67;;;10.83;;
75941;SDS011;64622;46.220;19.878;2023-01-29T09:22:18;21.23;;;9.30;;
75941;SDS011;64622;46.220;19.878;2023-01-29T09:24:46;21.23;;;8.45;;
75941;SDS011;64622;46.220;19.878;2023-01-29T09:27:12;20.65;;;7.78;;
75941;SDS011;64622;46.220;19.878;2023-01-29T09:29:39;21.02;;;8.18;;
75941;SDS011;64622;46.220;19.878;2023-01-29T09:32:07;20.73;;;7.60;;
75941;SDS011;64622;46.220;19.878;2023-01-29T09:34:33;21.83;;;8.73;;
75941;SDS011;64622;46.220;19.878;2023-01-29T09:37:00;18.52;;;7.25;;
75941;SDS011;64622;46.220;19.878;2023-01-29T09:39:27;21.02;;;8.25;;
75941;SDS011;64622;46.220;19.878;2023-01-29T09:42:09;20.15;;;8.82;;
75941;SDS011;64622;46.220;19.878;2023-01-29T09:47:33;22.37;;;8.50;;
75941;SDS011;64622;46.220;19.878;2023-01-29T09:50:12;18.05;;;7.10;;
75941;SDS011;64622;46.220;19.878;2023-01-29T09:53:33;18.12;;;7.07;;
75941;SDS011;64622;46.220;19.878;2023-01-29T09:55:48;21.45;;;9.38;;
75941;SDS011;64622;46.220;19.878;2023-01-29T09:58:24;26.35;;;12.95;;
75941;SDS011;64622;46.220;19.878;2023-01-29T10:04:21;23.38;;;11.63;;
75941;SDS011;64622;46.220;19.878;2023-01-29T10:07:18;24.25;;;12.48;;
75941;SDS011;64622;46.220;19.878;2023-01-29T10:13:14;26.77;;;11.27;;
75941;SDS011;64622;46.220;19.878;2023-01-29T10:26:41;23.97;;;10.03;;
75941;SDS011;64622;46.220;19.878;2023-01-29T10:29:09;26.02;;;11.27;;
75941;SDS011;64622;46.220;19.878;2023-01-29T10:31:43;39.72;;;18.10;;
75941;SDS011;64622;46.220;19.878;2023-01-29T10:36:55;24.92;;;10.82;;
75941;SDS011;64622;46.220;19.878;2023-01-29T10:39:23;21.00;;;9.07;;
75941;SDS011;64622;46.220;19.878;2023-01-29T10:42:05;24.63;;;10.65;;
75941;SDS011;64622;46.220;19.878;2023-01-29T10:47:33;24.15;;;9.82;;
75941;SDS011;64622;46.220;19.878;2023-01-29T10:56:27;29.73;;;13.10;;
75941;SDS011;64622;46.220;19.878;2023-01-29T11:02:13;33.60;;;15.10;;
75941;SDS011;64622;46.220;19.878;2023-01-29T11:04:43;32.70;;;12.88;;
75941;SDS011;64622;46.220;19.878;2023-01-29T11:07:10;27.95;;;11.85;;
75941;SDS011;64622;46.220;19.878;2023-01-29T11:09:47;25.00;;;10.23;;
75941;SDS011;64622;46.220;19.878;2023-01-29T11:12:16;23.25;;;9.65;;
75941;SDS011;64622;46.220;19.878;2023-01-29T11:14:50;24.48;;;9.25;;
75941;SDS011;64622;46.220;19.878;2023-01-29T11:17:22;24.60;;;9.88;;
75941;SDS011;64622;46.220;19.878;2023-01-29T11:19:51;21.90;;;8.30;;
75941;SDS011;64622;46.220;19.878;2023-01-29T11:22:21;27.73;;;10.93;;
75941;SDS011;64622;46.220;19.878;2023-01-29T11:25:06;24.83;;;10.70;;
75941;SDS011;64622;46.220;19.878;2023-01-29T11:27:44;23.92;;;8.98;;
75941;SDS011;64622;46.220;19.878;2023-01-29T11:30:24;27.50;;;12.40;;
75941;SDS011;64622;46.220;19.878;2023-01-29T11:33:07;27.20;;;11.38;;
75941;SDS011;64622;46.220;19.878;2023-01-29T11:35:35;27.02;;;11.65;;
75941;SDS011;64622;46.220;19.878;2023-01-29T11:38:06;33.47;;;14.20;;
75941;SDS011;64622;46.220;19.878;2023-01-29T11:40:44;41.35;;;19.08;;
75941;SDS011;64622;46.220;19.878;2023-01-29T11:45:42;29.10;;;12.07;;
75941;SDS011;64622;46.220;19.878;2023-01-29T11:48:19;24.30;;;9.90;;
75941;SDS011;64622;46.220;19.878;2023-01-29T11:50:50;15.98;;;6.20;;
75941;SDS011;64622;46.220;19.878;2023-01-29T11:53:23;26.27;;;10.60;;
75941;SDS011;64622;46.220;19.878;2023-01-29T11:56:20;23.17;;;10.23;;
75941;SDS011;64622;46.220;19.878;2023-01-29T11:58:52;25.63;;;11.20;;
75941;SDS011;64622;46.220;19.878;2023-01-29T12:01:29;26.80;;;11.32;;
75941;SDS011;64622;46.220;19.878;2023-01-29T12:03:58;19.37;;;7.93;;
75941;SDS011;64622;46.220;19.878;2023-01-29T12:06:35;33.15;;;12.60;;
75941;SDS011;64622;46.220;19.878;2023-01-29T12:09:12;21.83;;;8.32;;
75941;SDS011;64622;46.220;19.878;2023-01-29T12:11:43;22.95;;;9.32;;
75941;SDS011;64622;46.220;19.878;2023-01-29T12:17:02;28.38;;;11.85;;
75941;SDS011;64622;46.220;19.878;2023-01-29T12:22:22;25.65;;;10.75;;
75941;SDS011;64622;46.220;19.878;2023-01-29T12:25:02;27.40;;;11.00;;
75941;SDS011;64622;46.220;19.878;2023-01-29T12:27:38;27.52;;;10.75;;
75941;SDS011;64622;46.220;19.878;2023-01-29T12:30:21;29.37;;;12.63;;
75941;SDS011;64622;46.220;19.878;2023-01-29T12:35:52;32.22;;;12.63;;
75941;SDS011;64622;46.220;19.878;2023-01-29T12:38:27;29.65;;;11.95;;
75941;SDS011;64622;46.220;19.878;2023-01-29T12:40:56;32.33;;;13.85;;
75941;SDS011;64622;46.220;19.878;2023-01-29T12:46:13;36.42;;;12.98;;
75941;SDS011;64622;46.220;19.878;2023-01-29T12:48:47;32.08;;;13.50;;
75941;SDS011;64622;46.220;19.878;2023-01-29T12:51:19;30.70;;;13.05;;
75941;SDS011;64622;46.220;19.878;2023-01-29T12:53:53;36.20;;;14.93;;
75941;SDS011;64622;46.220;19.878;2023-01-29T12:56:45;40.78;;;16.08;;
75941;SDS011;64622;46.220;19.878;2023-01-29T13:01:55;32.40;;;14.55;;
75941;SDS011;64622;46.220;19.878;2023-01-29T13:04:34;33.60;;;13.30;;
75941;SDS011;64622;46.220;19.878;2023-01-29T13:07:10;35.95;;;14.25;;
75941;SDS011;64622;46.220;19.878;2023-01-29T13:09:38;34.22;;;13.25;;
75941;SDS011;64622;46.220;19.878;2023-01-29T13:12:16;35.00;;;14.00;;
75941;SDS011;64622;46.220;19.878;2023-01-29T13:14:47;33.45;;;13.98;;
75941;SDS011;64622;46.220;19.878;2023-01-29T13:20:44;35.63;;;14.43;;
75941;SDS011;64622;46.220;19.878;2023-01-29T13:22:57;35.72;;;15.40;;
75941;SDS011;64622;46.220;19.878;2023-01-29T13:25:50;43.15;;;23.35;;
75941;SDS011;64622;46.220;19.878;2023-01-29T13:28:22;31.98;;;14.20;;
75941;SDS011;64622;46.220;19.878;2023-01-29T13:34:14;36.65;;;14.15;;
75941;SDS011;64622;46.220;19.878;2023-01-29T13:36:51;31.25;;;12.93;;
75941;SDS011;64622;46.220;19.878;2023-01-29T13:39:26;28.75;;;11.07;;
75941;SDS011;64622;46.220;19.878;2023-01-29T13:41:58;25.55;;;10.77;;
75941;SDS011;64622;46.220;19.878;2023-01-29T13:44:32;30.67;;;12.82;;
75941;SDS011;64622;46.220;19.878;2023-01-29T13:47:06;28.48;;;10.63;;
75941;SDS011;64622;46.220;19.878;2023-01-29T13:49:40;26.23;;;10.00;;
75941;SDS011;64622;46.220;19.878;2023-01-29T13:54:41;26.10;;;11.32;;
75941;SDS011;64622;46.220;19.878;2023-01-29T13:58:00;28.17;;;11.77;;
75941;SDS011;64622;46.220;19.878;2023-01-29T14:02:46;29.30;;;11.75;;
75941;SDS011;64622;46.220;19.878;2023-01-29T14:10:34;26.98;;;11.65;;
75941;SDS011;64622;46.220;19.878;2023-01-29T14:15:33;29.17;;;11.52;;
75941;SDS011;64622;46.220;19.878;2023-01-29T14:18:11;20.30;;;8.90;;
75941;SDS011;64622;46.220;19.878;2023-01-29T14:23:20;22.95;;;10.23;;
75941;SDS011;64622;46.220;19.878;2023-01-29T14:26:20;25.52;;;10.70;;
75941;SDS011;64622;46.220;19.878;2023-01-29T14:31:48;23.58;;;10.45;;
75941;SDS011;64622;46.220;19.878;2023-01-29T14:34:40;24.70;;;10.70;;
75941;SDS011;64622;46.220;19.878;2023-01-29T14:39:46;26.12;;;10.82;;
75941;SDS011;64622;46.220;19.878;2023-01-29T14:42:22;22.25;;;10.10;;
75941;SDS011;64622;46.220;19.878;2023-01-29T14:58:43;24.70;;;9.65;;
75941;SDS011;64622;46.220;19.878;2023-01-29T15:04:05;22.05;;;9.48;;
75941;SDS011;64622;46.220;19.878;2023-01-29T15:06:44;20.88;;;9.82;;
75941;SDS011;64622;46.220;19.878;2023-01-29T15:09:19;21.95;;;7.30;;
75941;SDS011;64622;46.220;19.878;2023-01-29T15:15:02;22.75;;;8.38;;
75941;SDS011;64622;46.220;19.878;2023-01-29T15:17:31;21.08;;;8.10;;
75941;SDS011;64622;46.220;19.878;2023-01-29T15:22:50;21.02;;;8.75;;
75941;SDS011;64622;46.220;19.878;2023-01-29T15:25:18;28.10;;;12.18;;
75941;SDS011;64622;46.220;19.878;2023-01-29T15:27:47;25.42;;;10.95;;
75941;SDS011;64622;46.220;19.878;2023-01-29T15:30:17;22.42;;;8.95;;
75941;SDS011;64622;46.220;19.878;2023-01-29T15:32:47;24.58;;;10.00;;
75941;SDS011;64622;46.220;19.878;2023-01-29T15:35:22;28.08;;;13.40;;
75941;SDS011;64622;46.220;19.878;2023-01-29T15:37:58;23.23;;;10.25;;
75941;SDS011;64622;46.220;19.878;2023-01-29T15:40:25;25.52;;;9.65;;
75941;SDS011;64622;46.220;19.878;2023-01-29T15:42:52;25.62;;;10.13;;
75941;SDS011;64622;46.220;19.878;2023-01-29T15:45:38;23.90;;;8.93;;
75941;SDS011;64622;46.220;19.878;2023-01-29T15:48:06;19.48;;;9.13;;
75941;SDS011;64622;46.220;19.878;2023-01-29T15:50:40;24.65;;;9.25;;
75941;SDS011;64622;46.220;19.878;2023-01-29T15:53:12;16.52;;;6.75;;
75941;SDS011;64622;46.220;19.878;2023-01-29T15:55:43;20.10;;;7.93;;
75941;SDS011;64622;46.220;19.878;2023-01-29T15:58:13;20.98;;;9.00;;
75941;SDS011;64622;46.220;19.878;2023-01-29T16:00:51;20.60;;;8.63;;
75941;SDS011;64622;46.220;19.878;2023-01-29T16:03:21;22.48;;;8.48;;
75941;SDS011;64622;46.220;19.878;2023-01-29T16:05:49;25.45;;;10.98;;
75941;SDS011;64622;46.220;19.878;2023-01-29T16:08:18;23.92;;;10.15;;
75941;SDS011;64622;46.220;19.878;2023-01-29T16:10:49;22.25;;;8.82;;
75941;SDS011;64622;46.220;19.878;2023-01-29T16:13:22;21.15;;;9.30;;
75941;SDS011;64622;46.220;19.878;2023-01-29T16:15:54;19.73;;;8.48;;
75941;SDS011;64622;46.220;19.878;2023-01-29T16:18:23;23.98;;;10.13;;
75941;SDS011;64622;46.220;19.878;2023-01-29T16:21:06;24.55;;;9.93;;
75941;SDS011;64622;46.220;19.878;2023-01-29T16:23:41;19.90;;;8.07;;
75941;SDS011;64622;46.220;19.878;2023-01-29T16:26:15;26.23;;;10.52;;
75941;SDS011;64622;46.220;19.878;2023-01-29T16:28:45;23.17;;;8.93;;
75941;SDS011;64622;46.220;19.878;2023-01-29T16:31:13;25.20;;;10.77;;
75941;SDS011;64622;46.220;19.878;2023-01-29T16:33:47;25.50;;;9.35;;
75941;SDS011;64622;46.220;19.878;2023-01-29T16:36:32;19.67;;;7.30;;
75941;SDS011;64622;46.220;19.878;2023-01-29T16:39:00;21.37;;;11.07;;
75941;SDS011;64622;46.220;19.878;2023-01-29T16:41:31;27.00;;;11.43;;
75941;SDS011;64622;46.220;19.878;2023-01-29T16:44:02;23.50;;;10.52;;
75941;SDS011;64622;46.220;19.878;2023-01-29T16:46:49;22.00;;;8.15;;
75941;SDS011;64622;46.220;19.878;2023-01-29T16:51:51;24.83;;;9.23;;
75941;SDS011;64622;46.220;19.878;2023-01-29T16:54:20;17.17;;;6.72;;
75941;SDS011;64622;46.220;19.878;2023-01-29T16:56:51;22.95;;;9.35;;
75941;SDS011;64622;46.220;19.878;2023-01-29T17:01:58;25.48;;;9.93;;
75941;SDS011;64622;46.220;19.878;2023-01-29T17:04:25;22.45;;;8.50;;
75941;SDS011;64622;46.220;19.878;2023-01-29T17:06:55;23.33;;;9.05;;
75941;SDS011;64622;46.220;19.878;2023-01-29T17:09:34;22.13;;;8.90;;
75941;SDS011;64622;46.220;19.878;2023-01-29T17:12:04;21.90;;;9.35;;
75941;SDS011;64622;46.220;19.878;2023-01-29T17:14:33;23.40;;;9.30;;
75941;SDS011;64622;46.220;19.878;2023-01-29T17:19:31;20.83;;;8.73;;
75941;SDS011;64622;46.220;19.878;2023-01-29T17:21:59;22.37;;;9.32;;
75941;SDS011;64622;46.220;19.878;2023-01-29T17:24:30;25.80;;;9.82;;
75941;SDS011;64622;46.220;19.878;2023-01-29T17:26:57;20.42;;;8.25;;
75941;SDS011;64622;46.220;19.878;2023-01-29T17:29:28;22.85;;;8.82;;